Alger, Michigan
Current Conditions -  °F | °C
As of 5:53 PM on Wednesday 22 Oct 2014 (Local Time) from KHTL Reporting Station
Clear Clear  
Wind Chill: 47°   Ceiling: Unl
Heat Index: 47°   Visibility: 10mi
Dew Point: 35°   Wind: 3mph
Humidity: 63%   Direction: 290°WNW
Pressure: 30.31"   Gusts: NA
Location:  44.13°N, 84.12°W
Report Text: KHTL 222153Z AUTO 29003KT 10SM CLR 08/02 A3031 RMK AO2 SLP274 T00830017
Loading
Personal Weather Stations






























Interactive Weather Map
Tropical Storm Tracking
New forecast layout! Learn more

10-Day Weather Forecast

Advertisements
Track Severe Weather on mobile